Arbor Vitae, Wisconsin
Current Conditions -  °F | °C
As of 6:35 AM on Monday 26 Jan 2015 (Local Time) from KARV Reporting Station
Overcast Overcast  
Wind Chill:   Ceiling: 1500
Heat Index: 17°   Visibility: 10mi
Dew Point:   Wind: 8mph
Humidity: 69%   Direction: 170°S
Pressure: 29.76"   Gusts: NA
Location:  45.9553°N, 89.6779°W
Report Text: KARV 261235Z AUTO 17007KT 10SM OVC015 M08/M13 A2976 RMK AO2 T10851132
Loading
Personal Weather Stations






























Interactive Weather Map New forecast layout! Learn more

10-Day Weather Forecast

Advertisements
Track Severe Weather on mobile